Time;durP1;ratioP1;P1;durP2;ratioP2;P2;SDS_P1;SDS_P2;PMS_P1;PMS_P2;Temp;Humidity;BMP_temperature;BMP_pressure;BME280_temperature;BME280_humidity;BME280_pressure;Samples;Min_cycle;Max_cycle;Signal;HPM_P1;HPM_P2
2022/07/07 00:02:15;;;;;;;4.83;3.87;;;21.10;72.80;;;;;;5050490;28;20448;-81
2022/07/07 00:04:42;;;;;;;5.27;3.70;;;21.10;73.30;;;;;;5048211;28;20558;-81
2022/07/07 00:07:09;;;;;;;4.87;3.30;;;21.10;73.70;;;;;;5040746;28;20469;-81
2022/07/07 00:09:35;;;;;;;4.50;3.27;;;21.10;74.00;;;;;;5043877;28;20446;-81
2022/07/07 00:12:03;;;;;;;6.13;3.53;;;21.00;74.10;;;;;;5040077;28;20550;-81
2022/07/07 00:14:29;;;;;;;5.83;3.57;;;21.10;74.10;;;;;;5037539;28;20498;-81
2022/07/07 00:16:56;;;;;;;5.40;3.23;;;21.10;74.30;;;;;;5044972;28;20473;-81
2022/07/07 00:19:23;;;;;;;5.30;3.67;;;21.20;74.50;;;;;;5043182;28;20447;-81
2022/07/07 00:21:50;;;;;;;3.80;3.10;;;21.10;74.50;;;;;;5039721;28;20825;-80
2022/07/07 00:24:17;;;;;;;5.70;3.50;;;21.10;74.80;;;;;;5030486;28;20465;-80
2022/07/07 00:26:48;;;;;;;5.30;3.67;;;21.10;75.20;;;;;;5046795;28;20476;-81
2022/07/07 00:29:14;;;;;;;4.27;3.87;;;21.10;75.50;;;;;;5038575;28;20477;-81
2022/07/07 00:31:41;;;;;;;3.67;3.37;;;21.10;75.50;;;;;;5034847;28;20456;-82
2022/07/07 00:34:08;;;;;;;6.20;3.60;;;21.10;75.50;;;;;;5038947;28;20524;-80
2022/07/07 00:36:36;;;;;;;4.90;3.60;;;21.10;75.80;;;;;;5040507;28;20473;-81
2022/07/07 00:39:03;;;;;;;6.90;4.10;;;21.00;76.00;;;;;;5042474;28;20473;-79
2022/07/07 00:41:29;;;;;;;4.70;3.70;;;21.00;76.50;;;;;;5045798;28;20469;-81
2022/07/07 00:43:56;;;;;;;3.90;3.60;;;21.00;76.90;;;;;;5035507;28;20456;-81
2022/07/07 00:46:23;;;;;;;4.60;4.20;;;21.00;77.20;;;;;;5040811;28;20473;-81
2022/07/07 00:48:50;;;;;;;3.80;3.40;;;21.00;77.40;;;;;;5035919;28;20532;-81
2022/07/07 00:51:17;;;;;;;3.53;3.23;;;21.00;77.60;;;;;;5037524;28;20529;-81
2022/07/07 00:53:44;;;;;;;6.10;3.73;;;21.00;77.70;;;;;;5034548;28;20484;-81
2022/07/07 00:56:10;;;;;;;5.20;3.77;;;21.00;78.20;;;;;;5039822;28;20473;-82
2022/07/07 00:58:37;;;;;;;3.60;3.30;;;21.00;78.50;;;;;;5034020;28;20506;-81
2022/07/07 01:01:04;;;;;;;4.47;3.60;;;20.90;78.70;;;;;;5033822;28;20472;-81
2022/07/07 01:03:31;;;;;;;4.30;3.90;;;21.00;78.80;;;;;;5040572;28;20467;-82
2022/07/07 01:05:59;;;;;;;4.07;3.73;;;20.90;79.30;;;;;;5034274;28;20491;-81
2022/07/07 01:08:26;;;;;;;5.23;3.93;;;20.80;80.10;;;;;;5035058;28;21070;-81
2022/07/07 01:10:54;;;;;;;6.70;4.40;;;20.80;80.80;;;;;;5029019;28;20454;-81
2022/07/07 01:13:21;;;;;;;6.30;3.80;;;20.70;81.10;;;;;;5026690;28;20466;-82
2022/07/07 01:15:48;;;;;;;3.70;3.40;;;20.70;81.40;;;;;;5023844;28;20462;-82
2022/07/07 01:18:14;;;;;;;6.93;4.40;;;20.90;81.20;;;;;;5051116;28;21091;-81
2022/07/07 01:20:45;;;;;;;7.23;3.90;;;20.80;81.70;;;;;;5043250;28;20490;-81
2022/07/07 01:23:13;;;;;;;5.53;4.13;;;20.80;82.20;;;;;;5052623;28;20429;-82
2022/07/07 01:25:40;;;;;;;5.43;3.63;;;20.80;82.40;;;;;;5053471;28;20441;-81
2022/07/07 01:28:07;;;;;;;5.07;4.00;;;20.80;82.80;;;;;;5048037;28;20461;-80
2022/07/07 01:30:34;;;;;;;4.87;3.70;;;20.90;83.00;;;;;;5054054;28;20481;-81
2022/07/07 01:33:01;;;;;;;4.00;3.70;;;20.90;83.10;;;;;;5058260;28;20465;-81
2022/07/07 01:35:27;;;;;;;4.80;3.93;;;20.80;83.70;;;;;;5054942;28;20455;-81
2022/07/07 01:37:54;;;;;;;4.70;4.03;;;20.80;84.50;;;;;;5051518;28;20477;-81
2022/07/07 01:40:21;;;;;;;3.80;3.50;;;20.70;85.10;;;;;;5031957;28;20463;-80
2022/07/07 01:42:47;;;;;;;5.13;3.40;;;20.70;85.80;;;;;;5036421;28;20537;-81
2022/07/07 01:45:14;;;;;;;4.60;3.60;;;20.70;86.80;;;;;;5045114;28;20460;-81
2022/07/07 01:47:41;;;;;;;4.13;3.73;;;20.60;86.40;;;;;;5043884;28;20507;-80
2022/07/07 01:50:08;;;;;;;8.20;4.20;;;20.60;87.00;;;;;;5028414;28;20449;-79
2022/07/07 01:52:36;;;;;;;6.03;3.63;;;20.60;87.60;;;;;;5037307;28;20477;-81
2022/07/07 01:55:04;;;;;;;9.30;4.13;;;20.60;87.80;;;;;;5033094;28;20447;-79
2022/07/07 01:57:31;;;;;;;3.97;3.67;;;20.60;88.10;;;;;;5031079;28;20567;-79
2022/07/07 01:59:58;;;;;;;3.83;3.07;;;20.60;88.30;;;;;;5029169;28;20453;-81
2022/07/07 02:02:25;;;;;;;6.73;3.80;;;20.60;88.40;;;;;;5029263;28;20461;-80
2022/07/07 02:04:52;;;;;;;3.83;3.33;;;20.70;88.50;;;;;;5036399;28;20457;-82
2022/07/07 02:07:19;;;;;;;4.43;3.67;;;21.00;87.90;;;;;;5035080;28;20481;-81
2022/07/07 02:09:46;;;;;;;4.30;3.23;;;21.20;86.20;;;;;;5031946;28;20449;-81
2022/07/07 02:12:12;;;;;;;6.70;3.60;;;21.30;86.40;;;;;;5032016;28;20481;-82
2022/07/07 02:14:39;;;;;;;5.47;3.33;;;21.10;86.80;;;;;;5039685;28;20954;-81
2022/07/07 02:17:05;;;;;;;4.90;3.63;;;21.00;87.40;;;;;;5030948;28;20481;-82
2022/07/07 02:19:32;;;;;;;6.60;3.93;;;20.80;88.80;;;;;;5034554;28;20449;-82
2022/07/07 02:21:59;;;;;;;3.60;3.20;;;20.60;90.00;;;;;;5035705;28;20461;-82
2022/07/07 02:24:26;;;;;;;6.83;3.77;;;20.60;90.40;;;;;;5039771;28;20453;-82
2022/07/07 02:26:52;;;;;;;4.17;3.40;;;20.60;90.30;;;;;;5029300;28;20476;-80
2022/07/07 02:29:19;;;;;;;4.43;3.40;;;20.60;90.60;;;;;;5033936;28;20471;-81
2022/07/07 02:31:46;;;;;;;4.73;3.07;;;20.50;90.90;;;;;;5032518;28;20886;-82
2022/07/07 02:34:12;;;;;;;4.40;4.00;;;20.60;91.60;;;;;;5026808;28;20486;-82
2022/07/07 02:36:39;;;;;;;6.63;3.70;;;20.80;91.40;;;;;;5033185;28;20480;-80
2022/07/07 02:39:06;;;;;;;4.43;3.90;;;21.00;91.20;;;;;;5037357;28;20449;-82
2022/07/07 02:41:33;;;;;;;7.00;4.13;;;21.00;91.40;;;;;;5027873;28;20578;-83
2022/07/07 02:44:00;;;;;;;6.53;3.83;;;21.00;91.80;;;;;;5041110;28;20492;-82
2022/07/07 02:46:28;;;;;;;4.80;4.03;;;20.80;91.90;;;;;;5046384;28;20499;-81
2022/07/07 02:48:55;;;;;;;7.80;4.60;;;20.80;91.80;;;;;;5030338;28;20458;-82
2022/07/07 02:51:22;;;;;;;7.77;4.17;;;20.60;92.10;;;;;;5042645;28;20483;-83
2022/07/07 02:53:48;;;;;;;7.03;4.40;;;20.50;92.40;;;;;;5033868;28;21130;-82
2022/07/07 02:56:15;;;;;;;9.07;4.60;;;20.60;92.50;;;;;;5044659;28;20553;-81
2022/07/07 02:58:42;;;;;;;4.40;4.00;;;20.60;92.40;;;;;;5037616;28;20457;-82
2022/07/07 03:01:08;;;;;;;5.07;4.60;;;20.50;92.60;;;;;;5040620;28;20494;-82
2022/07/07 03:03:36;;;;;;;6.07;4.53;;;20.30;93.10;;;;;;5039624;28;20478;-81
2022/07/07 03:06:03;;;;;;;5.57;4.50;;;20.20;93.40;;;;;;5047543;28;20490;-81
2022/07/07 03:08:31;;;;;;;6.17;4.10;;;20.30;93.40;;;;;;5068401;28;20439;-81
2022/07/07 03:10:58;;;;;;;9.17;4.10;;;20.30;93.40;;;;;;5053235;28;20489;-80
2022/07/07 03:13:25;;;;;;;5.33;4.43;;;20.30;93.30;;;;;;5047903;28;20480;-82
2022/07/07 03:15:53;;;;;;;5.93;5.13;;;20.40;93.00;;;;;;5046921;28;20473;-82
2022/07/07 03:18:20;;;;;;;4.30;3.90;;;20.30;93.20;;;;;;5036265;28;20552;-80
2022/07/07 03:20:47;;;;;;;5.33;4.37;;;20.20;93.50;;;;;;5029250;28;20461;-81
2022/07/07 03:23:13;;;;;;;6.10;3.80;;;20.10;93.70;;;;;;5038501;28;20516;-82
2022/07/07 03:25:40;;;;;;;7.67;4.50;;;20.10;93.80;;;;;;5042974;28;20485;-81
2022/07/07 03:28:07;;;;;;;4.03;3.63;;;20.20;94.00;;;;;;5035849;28;20465;-81
2022/07/07 03:30:33;;;;;;;4.20;3.83;;;20.20;93.90;;;;;;5031527;28;20515;-82
2022/07/07 03:33:00;;;;;;;3.87;3.57;;;20.10;93.90;;;;;;5031460;28;20549;-81
2022/07/07 03:35:27;;;;;;;4.90;3.93;;;20.10;94.10;;;;;;5034570;28;20484;-82
2022/07/07 03:37:54;;;;;;;3.90;3.60;;;20.10;94.40;;;;;;5032250;28;20482;-82
2022/07/07 03:40:20;;;;;;;4.60;3.73;;;20.20;94.10;;;;;;5033366;28;20484;-82
2022/07/07 03:42:47;;;;;;;7.00;3.60;;;20.20;94.20;;;;;;5028059;28;20552;-81
2022/07/07 03:45:14;;;;;;;5.07;3.63;;;20.20;94.20;;;;;;5044812;28;20473;-82
2022/07/07 03:47:41;;;;;;;4.10;3.70;;;20.20;94.30;;;;;;5041534;28;20547;-81
2022/07/07 03:50:08;;;;;;;3.87;3.50;;;20.20;94.40;;;;;;5034835;28;20537;-82
2022/07/07 03:52:35;;;;;;;5.23;3.50;;;20.20;94.40;;;;;;5027735;28;20493;-82
2022/07/07 03:55:02;;;;;;;4.00;3.50;;;20.20;94.50;;;;;;5025877;28;20559;-81
2022/07/07 03:57:28;;;;;;;3.50;3.20;;;20.20;94.70;;;;;;5030360;28;20571;-81
2022/07/07 03:59:55;;;;;;;4.00;3.30;;;20.20;94.80;;;;;;5034127;28;20525;-81
2022/07/07 04:02:22;;;;;;;5.07;3.20;;;20.20;95.00;;;;;;5031888;28;20586;-79
2022/07/07 04:04:49;;;;;;;3.23;2.73;;;20.20;95.10;;;;;;5046017;28;20548;-80
2022/07/07 04:07:15;;;;;;;3.00;2.70;;;20.20;95.20;;;;;;5038687;28;20470;-80
2022/07/07 04:09:42;;;;;;;5.33;3.40;;;20.20;95.30;;;;;;5035494;28;20823;-80
2022/07/07 04:12:09;;;;;;;3.87;2.90;;;20.20;95.40;;;;;;5043567;28;20540;-79
2022/07/07 04:14:36;;;;;;;3.93;3.00;;;20.20;95.50;;;;;;5030775;28;20475;-81
2022/07/07 04:17:03;;;;;;;5.73;2.80;;;20.20;95.60;;;;;;5043458;28;20469;-82
2022/07/07 04:19:30;;;;;;;3.43;3.03;;;20.20;95.60;;;;;;5038842;28;20488;-82
2022/07/07 04:21:56;;;;;;;3.20;2.90;;;20.20;95.80;;;;;;5029597;28;20454;-82
2022/07/07 04:24:23;;;;;;;3.77;2.73;;;20.20;96.00;;;;;;5035159;28;20454;-81
2022/07/07 04:26:50;;;;;;;3.43;3.10;;;20.10;96.20;;;;;;5038780;28;20568;-81
2022/07/07 04:29:16;;;;;;;5.60;3.27;;;20.10;96.70;;;;;;5034186;28;20567;-81
2022/07/07 04:31:47;;;;;;;2.80;2.57;;;20.10;97.30;;;;;;5038145;28;20480;-81
2022/07/07 04:34:14;;;;;;;2.80;2.60;;;20.10;97.80;;;;;;5044098;28;20473;-83
2022/07/07 04:36:41;;;;;;;3.93;3.50;;;20.10;98.10;;;;;;5031762;28;20559;-80
2022/07/07 04:39:08;;;;;;;3.17;2.87;;;20.10;98.20;;;;;;5030528;28;21026;-82
2022/07/07 04:41:36;;;;;;;2.70;2.50;;;20.10;98.10;;;;;;5023741;28;20461;-81
2022/07/07 04:44:03;;;;;;;2.93;2.73;;;20.00;98.10;;;;;;5030314;28;20549;-82
2022/07/07 04:46:29;;;;;;;3.10;2.80;;;20.00;98.20;;;;;;5044803;28;20480;-82
2022/07/07 04:48:56;;;;;;;3.20;2.90;;;20.00;98.10;;;;;;5047335;28;20455;-81
2022/07/07 04:51:25;;;;;;;3.10;2.73;;;20.00;98.20;;;;;;5039191;28;20457;-80
2022/07/07 04:53:52;;;;;;;4.10;2.83;;;20.00;98.20;;;;;;5034728;28;20481;-81
2022/07/07 04:56:19;;;;;;;2.60;2.40;;;20.00;98.10;;;;;;5032943;28;20518;-80
2022/07/07 04:58:45;;;;;;;3.30;2.33;;;20.10;98.10;;;;;;5027243;28;20531;-80
2022/07/07 05:01:12;;;;;;;3.40;2.70;;;20.10;98.00;;;;;;5030430;28;20461;-80
2022/07/07 05:03:39;;;;;;;3.37;2.97;;;20.10;98.00;;;;;;5027951;28;20485;-82
2022/07/07 05:06:06;;;;;;;5.60;4.10;;;20.00;98.00;;;;;;5041010;28;20484;-81
2022/07/07 05:08:33;;;;;;;5.77;4.77;;;20.00;98.00;;;;;;5028511;28;20479;-81
2022/07/07 05:11:00;;;;;;;2.90;2.67;;;20.00;98.20;;;;;;5030883;28;20461;-81
2022/07/07 05:13:26;;;;;;;2.33;2.13;;;20.00;98.20;;;;;;5041657;28;20919;-81
2022/07/07 05:15:53;;;;;;;3.07;2.70;;;20.00;98.20;;;;;;5044597;28;20485;-81
2022/07/07 05:18:21;;;;;;;2.77;2.53;;;20.00;98.20;;;;;;5039439;28;20449;-80
2022/07/07 05:20:47;;;;;;;3.57;2.67;;;20.00;98.20;;;;;;5026716;28;20450;-80
2022/07/07 05:23:14;;;;;;;7.07;5.63;;;20.00;98.20;;;;;;5030678;28;20456;-81
2022/07/07 05:25:41;;;;;;;8.90;2.90;;;20.00;98.20;;;;;;5029882;28;20896;-80
2022/07/07 05:28:07;;;;;;;3.30;3.00;;;20.00;98.30;;;;;;5027086;28;20835;-81
2022/07/07 05:30:34;;;;;;;4.10;2.37;;;20.00;98.40;;;;;;5028158;28;20469;-79
2022/07/07 05:33:01;;;;;;;2.57;2.37;;;20.10;98.20;;;;;;5029252;28;20446;-81
2022/07/07 05:35:28;;;;;;;2.80;2.50;;;20.00;98.30;;;;;;5027805;28;20449;-81
2022/07/07 05:37:55;;;;;;;5.33;2.40;;;20.10;98.40;;;;;;5028265;28;20473;-82
2022/07/07 05:40:22;;;;;;;4.40;3.00;;;20.00;98.60;;;;;;5028616;28;20461;-81
2022/07/07 05:42:49;;;;;;;3.40;2.47;;;20.10;98.30;;;;;;5024212;28;20453;-82
2022/07/07 05:45:19;;;;;;;6.70;5.03;;;20.10;98.40;;;;;;5030944;28;20445;-81
2022/07/07 05:47:46;;;;;;;2.60;2.40;;;20.10;98.40;;;;;;5032201;28;20489;-81
2022/07/07 05:50:13;;;;;;;3.10;2.80;;;20.10;98.30;;;;;;5032634;28;21066;-81
2022/07/07 05:52:40;;;;;;;3.10;2.43;;;20.20;98.20;;;;;;5024858;28;20465;-82
2022/07/07 05:55:07;;;;;;;3.60;2.73;;;20.10;98.20;;;;;;5033066;28;20504;-81
2022/07/07 05:57:34;;;;;;;4.20;2.60;;;20.10;98.40;;;;;;5024277;28;20485;-81
2022/07/07 06:00:01;;;;;;;2.93;2.67;;;20.10;99.00;;;;;;5031847;28;20461;-81
2022/07/07 06:02:28;;;;;;;3.53;2.53;;;20.00;99.80;;;;;;5044713;28;20787;-83
2022/07/07 06:04:54;;;;;;;4.80;4.33;;;20.00;99.90;;;;;;5032224;28;20465;-82
2022/07/07 06:07:22;;;;;;;8.00;3.70;;;19.90;99.90;;;;;;5037970;28;20483;-82
2022/07/07 06:09:48;;;;;;;3.13;2.80;;;19.90;99.90;;;;;;5031077;28;20479;-82
2022/07/07 06:12:15;;;;;;;3.30;3.00;;;19.80;99.90;;;;;;5031887;28;20479;-82
2022/07/07 06:14:42;;;;;;;6.43;4.90;;;19.80;99.90;;;;;;5028892;28;20495;-83
2022/07/07 06:17:10;;;;;;;6.30;3.77;;;19.90;99.90;;;;;;5044328;28;21026;-82
2022/07/07 06:19:37;;;;;;;7.07;4.30;;;19.80;99.90;;;;;;5052184;28;20460;-80
2022/07/07 06:22:04;;;;;;;6.50;4.30;;;19.70;99.90;;;;;;5030996;28;20532;-81
2022/07/07 06:24:31;;;;;;;4.40;4.00;;;19.70;99.90;;;;;;5042176;28;20468;-80
2022/07/07 06:26:58;;;;;;;4.27;2.67;;;19.70;99.90;;;;;;5042479;28;20900;-80
2022/07/07 06:29:24;;;;;;;3.00;2.80;;;19.60;99.90;;;;;;5028483;28;20954;-80
2022/07/07 06:31:51;;;;;;;2.63;2.30;;;19.50;99.90;;;;;;5029112;28;20565;-81
2022/07/07 06:34:17;;;;;;;3.07;2.87;;;19.40;99.90;;;;;;5030915;28;20477;-81
2022/07/07 06:36:44;;;;;;;3.43;2.80;;;19.30;99.90;;;;;;5033792;28;20856;-81
2022/07/07 06:39:11;;;;;;;3.40;2.73;;;19.30;99.90;;;;;;5023783;28;20462;-81
2022/07/07 06:41:38;;;;;;;3.20;2.90;;;19.30;99.90;;;;;;5026571;28;20460;-80
2022/07/07 06:44:06;;;;;;;3.00;2.80;;;19.30;99.90;;;;;;5021490;28;20457;-80
2022/07/07 06:46:33;;;;;;;3.20;2.90;;;19.40;99.90;;;;;;5034156;28;20499;-82
2022/07/07 06:49:00;;;;;;;2.30;2.20;;;19.40;99.90;;;;;;5043160;28;20545;-81
2022/07/07 06:51:27;;;;;;;2.60;2.40;;;19.40;99.90;;;;;;5032915;28;20515;-80
2022/07/07 06:53:54;;;;;;;5.03;4.60;;;19.40;99.90;;;;;;5029284;28;20477;-81
2022/07/07 06:56:21;;;;;;;3.30;3.00;;;19.50;99.90;;;;;;5036315;28;20791;-80
2022/07/07 06:58:47;;;;;;;3.03;2.70;;;19.50;99.90;;;;;;5029525;28;20465;-80
2022/07/07 07:01:14;;;;;;;4.67;3.07;;;19.50;99.90;;;;;;5028553;28;20449;-81
2022/07/07 07:03:41;;;;;;;4.00;3.10;;;19.70;99.90;;;;;;5036543;28;21333;-79
2022/07/07 07:06:08;;;;;;;4.70;3.03;;;19.70;99.90;;;;;;5040279;28;20468;-79
2022/07/07 07:08:35;;;;;;;3.43;3.13;;;19.80;99.90;;;;;;5042459;28;20460;-79
2022/07/07 07:11:03;;;;;;;9.47;3.47;;;19.90;99.90;;;;;;5043666;28;20488;-79
2022/07/07 07:13:30;;;;;;;4.80;2.93;;;20.10;99.90;;;;;;5037981;28;20516;-79
2022/07/07 07:15:57;;;;;;;3.73;2.83;;;20.00;99.90;;;;;;5043696;28;20536;-79
2022/07/07 07:18:23;;;;;;;3.40;3.03;;;19.80;99.90;;;;;;5044333;28;20450;-79
2022/07/07 07:20:50;;;;;;;3.50;3.03;;;19.70;99.90;;;;;;5046596;28;20456;-80
2022/07/07 07:23:17;;;;;;;3.67;3.37;;;19.70;99.90;;;;;;5038770;28;20460;-80
2022/07/07 07:25:43;;;;;;;5.67;3.13;;;19.70;99.90;;;;;;5033222;28;20454;-80
2022/07/07 07:28:10;;;;;;;2.80;2.60;;;19.70;99.90;;;;;;5031228;28;20441;-79
2022/07/07 07:30:37;;;;;;;3.73;3.43;;;19.60;99.90;;;;;;5043261;28;20451;-81
2022/07/07 07:33:04;;;;;;;3.00;2.70;;;19.80;99.90;;;;;;5046781;28;20448;-82
2022/07/07 07:35:30;;;;;;;2.30;2.00;;;20.20;99.90;;;;;;5043792;28;20484;-82
2022/07/07 07:37:57;;;;;;;1.63;1.40;;;20.30;99.90;;;;;;5036494;28;20999;-82
2022/07/07 07:40:23;;;;;;;2.00;1.30;;;20.40;99.90;;;;;;5036423;28;20452;-82
2022/07/07 07:42:50;;;;;;;3.03;1.30;;;20.40;99.90;;;;;;5034701;28;20445;-81
2022/07/07 07:45:19;;;;;;;1.20;1.10;;;20.40;99.90;;;;;;5033959;28;20484;-82
2022/07/07 07:47:47;;;;;;;1.60;1.23;;;20.40;99.90;;;;;;5026861;28;20871;-80
2022/07/07 07:50:16;;;;;;;1.50;1.10;;;20.30;99.90;;;;;;5026288;28;20533;-82
2022/07/07 07:52:45;;;;;;;1.60;1.50;;;20.20;99.90;;;;;;5037728;28;20457;-82
2022/07/07 07:55:14;;;;;;;3.50;1.53;;;20.20;99.90;;;;;;5031387;28;20523;-82
2022/07/07 07:57:42;;;;;;;1.40;1.30;;;20.10;99.90;;;;;;5040583;28;20476;-81
2022/07/07 08:00:11;;;;;;;1.60;1.50;;;20.00;99.90;;;;;;5041771;28;20456;-82
2022/07/07 08:02:38;;;;;;;2.97;1.87;;;20.20;99.90;;;;;;5033781;28;20453;-83
2022/07/07 08:05:06;;;;;;;1.47;1.37;;;20.30;99.70;;;;;;5035216;28;20808;-82
2022/07/07 08:07:32;;;;;;;3.43;1.60;;;20.30;99.50;;;;;;5046212;28;20465;-82
2022/07/07 08:10:00;;;;;;;2.53;1.47;;;20.40;99.60;;;;;;5036897;28;20575;-80
2022/07/07 08:12:27;;;;;;;4.30;1.40;;;20.60;99.50;;;;;;5046591;28;20459;-82
2022/07/07 08:14:54;;;;;;;3.03;1.20;;;20.80;99.10;;;;;;5032437;28;21007;-83
2022/07/07 08:17:24;;;;;;;1.00;1.00;;;21.00;97.60;;;;;;5039409;28;20481;-80
2022/07/07 08:19:51;;;;;;;0.83;0.70;;;21.00;97.00;;;;;;5032372;28;20431;-83
2022/07/07 08:22:17;;;;;;;1.60;1.00;;;21.00;97.20;;;;;;5040460;28;20457;-82
2022/07/07 08:24:46;;;;;;;1.70;0.90;;;21.00;96.40;;;;;;5038744;28;20935;-83
2022/07/07 08:27:12;;;;;;;1.73;1.00;;;20.80;96.10;;;;;;5038092;28;20477;-82
2022/07/07 08:29:39;;;;;;;3.03;0.70;;;20.80;96.30;;;;;;5029731;28;20457;-81
2022/07/07 08:32:08;;;;;;;1.90;0.70;;;20.70;96.50;;;;;;5041115;28;20457;-81
2022/07/07 08:34:35;;;;;;;1.17;0.80;;;20.60;96.40;;;;;;5030712;28;21005;-81
2022/07/07 08:37:08;;;;;;;1.53;0.80;;;20.70;96.40;;;;;;5032435;28;20473;-81
2022/07/07 08:39:34;;;;;;;2.00;0.80;;;20.70;96.40;;;;;;5046278;28;20519;-82
2022/07/07 08:42:02;;;;;;;3.47;1.03;;;20.60;96.40;;;;;;5048403;28;20926;-80
2022/07/07 08:44:29;;;;;;;2.47;1.30;;;20.50;96.60;;;;;;5042720;28;20469;-80
2022/07/07 08:46:55;;;;;;;1.60;1.07;;;20.60;96.60;;;;;;5040985;28;20484;-80
2022/07/07 08:49:22;;;;;;;3.63;2.10;;;20.80;96.10;;;;;;5045980;28;20449;-82
2022/07/07 08:51:49;;;;;;;4.30;1.17;;;20.90;95.30;;;;;;5043845;28;20460;-83
2022/07/07 08:54:17;;;;;;;2.50;1.10;;;20.90;94.80;;;;;;5034720;28;20504;-81
2022/07/07 08:56:44;;;;;;;2.53;1.20;;;20.90;94.60;;;;;;5042810;28;20488;-82
2022/07/07 08:59:13;;;;;;;3.30;1.50;;;20.80;94.80;;;;;;5042862;28;20449;-82
2022/07/07 09:01:41;;;;;;;4.20;1.77;;;21.00;95.10;;;;;;5037474;28;20457;-81
2022/07/07 09:04:07;;;;;;;1.80;1.30;;;21.00;94.70;;;;;;5036998;28;20469;-82
2022/07/07 09:06:34;;;;;;;2.50;1.40;;;20.80;94.70;;;;;;5027324;28;20482;-81
2022/07/07 09:09:03;;;;;;;3.07;1.10;;;20.80;94.90;;;;;;5020863;28;20497;-83
2022/07/07 09:11:34;;;;;;;2.43;1.33;;;20.80;95.40;;;;;;5061718;28;20429;-82
2022/07/07 09:14:13;;;;;;;1.73;1.00;;;20.80;97.50;;;;;;5035096;28;20476;-82
2022/07/07 09:16:41;;;;;;;4.00;1.80;;;20.60;98.40;;;;;;5030514;28;20460;-81
2022/07/07 09:19:21;;;;;;;2.50;1.20;;;20.50;98.90;;;;;;5040443;28;20516;-82
2022/07/07 09:21:48;;;;;;;3.50;2.23;;;20.50;98.50;;;;;;5037461;28;20450;-81
2022/07/07 09:24:15;;;;;;;2.60;1.70;;;20.80;97.80;;;;;;5035871;28;20449;-83
2022/07/07 09:26:44;;;;;;;2.13;1.60;;;20.90;96.80;;;;;;5030642;28;20482;-81
2022/07/07 09:29:20;;;;;;;2.67;1.30;;;21.10;96.20;;;;;;5037094;28;20449;-82
2022/07/07 09:31:55;;;;;;;1.67;1.00;;;21.30;95.60;;;;;;5036983;28;20496;-81
2022/07/07 09:34:27;;;;;;;4.03;1.10;;;21.30;94.10;;;;;;5031343;28;20484;-82
2022/07/07 09:39:51;;;;;;;3.03;0.90;;;21.70;93.10;;;;;;5032684;28;20444;-82
2022/07/07 09:42:36;;;;;;;4.83;1.10;;;22.40;91.00;;;;;;5037876;28;21006;-80
2022/07/07 09:45:07;;;;;;;2.00;0.93;;;22.90;90.10;;;;;;5035315;28;21277;-82
2022/07/07 09:47:34;;;;;;;1.93;0.90;;;23.30;87.90;;;;;;5039939;28;20488;-82
2022/07/07 09:50:06;;;;;;;3.23;1.40;;;22.90;87.50;;;;;;5039474;28;20481;-82
2022/07/07 09:52:38;;;;;;;3.97;1.70;;;22.20;89.60;;;;;;5045536;28;20871;-80
2022/07/07 09:55:09;;;;;;;1.90;0.97;;;21.70;90.60;;;;;;5047744;28;20568;-79
2022/07/07 09:57:36;;;;;;;1.73;1.13;;;21.50;91.00;;;;;;5037657;28;20528;-80
2022/07/07 10:00:04;;;;;;;3.73;0.83;;;21.10;92.10;;;;;;5041686;28;20470;-82
2022/07/07 10:02:34;;;;;;;2.00;1.00;;;20.70;92.60;;;;;;5041825;28;20549;-81
2022/07/07 10:05:02;;;;;;;3.13;1.40;;;20.60;93.30;;;;;;5039931;28;20457;-80
2022/07/07 10:07:30;;;;;;;1.00;0.90;;;21.30;93.40;;;;;;5045076;28;20556;-80
2022/07/07 10:10:01;;;;;;;1.17;0.80;;;21.70;92.70;;;;;;5042572;28;20468;-82
2022/07/07 10:12:28;;;;;;;1.73;1.07;;;22.40;91.20;;;;;;5030177;28;20543;-80
2022/07/07 10:15:11;;;;;;;2.13;0.83;;;23.10;90.00;;;;;;5022141;28;20492;-80
2022/07/07 10:17:40;;;;;;;2.73;0.87;;;23.20;87.10;;;;;;5024076;28;20942;-82
2022/07/07 10:20:07;;;;;;;2.03;1.10;;;22.60;89.40;;;;;;5033228;28;20484;-81
2022/07/07 10:22:36;;;;;;;1.20;0.83;;;22.20;88.40;;;;;;5032047;28;20484;-81
2022/07/07 10:25:08;;;;;;;1.60;0.83;;;21.80;89.10;;;;;;5039148;28;20459;-82
2022/07/07 10:27:40;;;;;;;1.17;0.83;;;21.60;89.70;;;;;;5036308;28;20627;-82
2022/07/07 10:30:07;;;;;;;2.23;1.00;;;21.50;90.30;;;;;;5041751;28;20461;-81
2022/07/07 10:32:50;;;;;;;1.13;1.00;;;21.80;90.10;;;;;;5039313;28;20484;-81
2022/07/07 10:35:18;;;;;;;1.13;1.03;;;22.00;88.80;;;;;;5034448;28;20480;-82
2022/07/07 10:37:48;;;;;;;1.47;0.80;;;22.50;88.10;;;;;;5041703;28;20499;-81
2022/07/07 10:40:29;;;;;;;1.83;0.97;;;22.70;86.30;;;;;;5037097;28;20503;-81
2022/07/07 10:43:01;;;;;;;2.10;1.10;;;22.50;86.30;;;;;;5035215;28;20463;-81
2022/07/07 10:45:29;;;;;;;1.53;1.00;;;22.40;86.40;;;;;;5039051;28;20457;-80
2022/07/07 10:47:56;;;;;;;3.93;1.30;;;22.40;87.30;;;;;;5042123;28;20480;-81
2022/07/07 10:50:27;;;;;;;2.63;1.07;;;22.60;87.20;;;;;;5047724;28;20471;-80
2022/07/07 10:52:55;;;;;;;1.73;0.97;;;22.80;85.60;;;;;;5040748;28;20467;-80
2022/07/07 10:55:53;;;;;;;2.20;1.23;;;22.60;85.30;;;;;;5042964;28;20484;-83
2022/07/07 10:58:51;;;;;;;3.00;1.13;;;22.50;86.10;;;;;;5045238;28;20492;-82
2022/07/07 11:01:18;;;;;;;2.87;1.10;;;22.30;87.40;;;;;;5053050;28;20464;-82
2022/07/07 11:03:44;;;;;;;3.40;1.30;;;22.20;88.00;;;;;;5038966;28;21036;-81
2022/07/07 11:06:11;;;;;;;2.40;1.70;;;22.10;89.00;;;;;;5041858;28;20978;-81
2022/07/07 11:08:38;;;;;;;1.63;1.13;;;21.90;89.30;;;;;;5039246;28;20464;-82
2022/07/07 11:11:06;;;;;;;2.50;1.20;;;21.70;89.90;;;;;;5033925;28;20834;-81
2022/07/07 11:13:38;;;;;;;2.30;1.30;;;21.60;90.20;;;;;;5042327;28;20554;-82
2022/07/07 11:16:10;;;;;;;1.27;0.80;;;21.60;90.20;;;;;;5046168;28;20485;-82
2022/07/07 11:18:37;;;;;;;3.60;1.10;;;21.70;90.20;;;;;;5037339;28;20462;-81
2022/07/07 11:21:06;;;;;;;0.97;0.80;;;21.90;90.00;;;;;;5035958;28;20453;-82
2022/07/07 11:23:55;;;;;;;1.67;1.00;;;22.10;89.20;;;;;;5039191;28;20533;-83
2022/07/07 11:26:24;;;;;;;2.67;1.50;;;22.20;87.70;;;;;;5029075;28;20488;-81
2022/07/07 11:28:56;;;;;;;6.23;1.10;;;22.00;87.80;;;;;;5035493;28;20453;-81
2022/07/07 11:31:26;;;;;;;1.70;1.13;;;21.90;88.50;;;;;;5047241;28;20880;-82
2022/07/07 11:33:56;;;;;;;2.60;1.13;;;21.70;89.40;;;;;;5047993;28;20844;-82
2022/07/07 11:36:26;;;;;;;2.53;1.50;;;21.50;90.50;;;;;;5033438;28;20485;-81
2022/07/07 11:41:44;;;;;;;2.50;1.80;;;21.10;92.40;;;;;;5046933;28;20553;-80
2022/07/07 11:44:22;;;;;;;2.60;1.97;;;20.80;93.50;;;;;;5054520;28;20436;-81
2022/07/07 11:46:52;;;;;;;10.70;1.67;;;20.80;94.10;;;;;;5057221;28;20468;-80
2022/07/07 11:49:20;;;;;;;1.27;1.17;;;20.70;94.30;;;;;;5038989;28;20446;-81
2022/07/07 11:51:48;;;;;;;2.00;1.30;;;20.70;94.40;;;;;;5040486;28;20802;-79
2022/07/07 11:54:15;;;;;;;1.73;1.37;;;20.90;94.00;;;;;;5054459;28;20468;-79
2022/07/07 11:56:42;;;;;;;3.10;1.40;;;20.90;93.50;;;;;;5052647;28;20478;-79
2022/07/07 11:59:09;;;;;;;3.97;1.50;;;21.10;93.20;;;;;;5054797;28;20496;-80
2022/07/07 12:01:38;;;;;;;2.50;1.80;;;21.30;92.80;;;;;;5057944;28;20449;-79
2022/07/07 12:04:18;;;;;;;3.73;1.70;;;21.60;92.60;;;;;;5066359;28;20468;-81
2022/07/07 12:06:45;;;;;;;1.30;1.20;;;21.70;92.00;;;;;;5063230;28;20795;-82
2022/07/07 12:09:12;;;;;;;1.43;1.33;;;21.80;91.60;;;;;;5056987;28;20481;-82
2022/07/07 12:11:41;;;;;;;7.70;1.47;;;21.70;91.40;;;;;;5047298;28;20449;-81
2022/07/07 12:14:09;;;;;;;1.77;1.20;;;21.60;91.50;;;;;;5047289;28;20449;-81
2022/07/07 12:16:49;;;;;;;3.70;1.27;;;21.50;91.60;;;;;;5059224;28;20500;-83
2022/07/07 12:19:17;;;;;;;2.70;1.30;;;21.40;91.70;;;;;;5062951;28;20524;-82
2022/07/07 12:21:49;;;;;;;2.67;1.57;;;21.40;91.90;;;;;;5046616;28;20464;-82
2022/07/07 12:24:20;;;;;;;4.10;1.33;;;21.20;91.90;;;;;;5039676;28;20552;-82
2022/07/07 12:26:51;;;;;;;4.00;1.47;;;21.10;92.50;;;;;;5062368;28;20461;-80
2022/07/07 12:29:20;;;;;;;3.27;1.47;;;21.00;92.30;;;;;;5055745;28;20438;-82
2022/07/07 12:31:49;;;;;;;3.13;1.30;;;21.10;92.50;;;;;;5058789;28;20446;-80
2022/07/07 12:34:22;;;;;;;3.57;1.23;;;21.10;92.40;;;;;;5052845;28;20449;-81
2022/07/07 12:36:49;;;;;;;2.93;1.73;;;21.10;92.40;;;;;;5051499;28;20494;-83
2022/07/07 12:39:19;;;;;;;2.17;1.67;;;21.20;92.50;;;;;;5057538;28;20444;-83
2022/07/07 12:41:51;;;;;;;2.27;1.37;;;21.40;92.30;;;;;;5055687;28;20555;-82
2022/07/07 12:44:21;;;;;;;2.73;1.20;;;21.70;91.90;;;;;;5037372;28;20947;-81
2022/07/07 12:47:08;;;;;;;1.30;1.20;;;21.70;90.90;;;;;;5037729;28;20469;-78
2022/07/07 12:49:35;;;;;;;1.77;1.20;;;21.60;90.70;;;;;;5037583;28;20447;-81
2022/07/07 12:52:10;;;;;;;4.50;1.57;;;21.70;90.60;;;;;;5063892;28;20450;-81
2022/07/07 12:54:37;;;;;;;2.23;1.20;;;21.80;90.60;;;;;;5053157;28;20463;-81
2022/07/07 12:57:05;;;;;;;1.87;1.30;;;21.90;90.80;;;;;;5047815;28;20480;-81
2022/07/07 12:59:37;;;;;;;4.00;1.33;;;21.70;91.20;;;;;;5042248;28;20479;-82